Time;durP1;ratioP1;P1;durP2;ratioP2;P2;SDS_P1;SDS_P2;PMS_P1;PMS_P2;Temp;Humidity;BMP_temperature;BMP_pressure;BME280_temperature;BME280_humidity;BME280_pressure;Samples;Min_cycle;Max_cycle;Signal;HPM_P1;HPM_P2
2022/02/10 00:06:33;;;;;;;32.05;11.90;;;;;;;2.84;70.43;101272.00;1724117;83;21196;-67
2022/02/10 00:14:43;;;;;;;33.35;13.72;;;;;;;2.66;70.54;101284.37;1724130;82;21078;-66
2022/02/10 00:17:12;;;;;;;23.52;11.28;;;;;;;2.59;70.65;101272.41;1722571;83;21068;-66
2022/02/10 00:20:08;;;;;;;14.18;5.58;;;;;;;2.53;70.81;101259.56;1723239;82;21148;-66
2022/02/10 00:36:04;;;;;;;;;;;;;;;2.46;71.57;101273.05;1726358;82;21492;-66
2022/02/10 00:38:27;;;;;;;31.30;14.07;;;;;;;2.46;71.53;101264.44;1721006;82;20149;-66
2022/02/10 00:40:52;;;;;;;36.20;17.50;;;;;;;2.44;71.46;101272.66;1723625;82;20972;-66
2022/02/10 00:43:18;;;;;;;38.38;17.77;;;;;;;2.40;71.40;101273.17;1712898;82;20998;-65
2022/02/10 00:45:47;;;;;;;42.33;21.52;;;;;;;2.37;71.45;101283.55;1704349;82;21130;-67
2022/02/10 00:48:14;;;;;;;52.35;24.12;;;;;;;2.33;71.57;101292.68;1704354;82;20915;-65
2022/02/10 00:50:43;;;;;;;54.45;27.02;;;;;;;2.30;71.68;101293.59;1704345;82;20954;-65
2022/02/10 00:53:19;;;;;;;65.83;30.52;;;;;;;2.26;71.83;101288.88;1704575;82;20959;-66
2022/02/10 00:55:45;;;;;;;64.60;32.42;;;;;;;2.23;71.91;101283.77;1704116;84;20914;-67
2022/02/10 00:58:20;;;;;;;72.35;31.70;;;;;;;2.19;71.96;101275.62;1704456;84;21814;-66
2022/02/10 01:31:54;;;;;;;32.65;18.32;;;;;;;1.53;73.94;101289.42;1816479;79;22743;-67
2022/02/10 01:34:20;;;;;;;35.68;16.12;;;;;;;1.46;74.20;101290.38;1788426;80;20927;-67
2022/02/10 01:36:47;;;;;;;37.55;16.93;;;;;;;1.41;74.28;101275.38;1789691;80;21838;-66
2022/02/10 01:39:20;;;;;;;36.38;14.30;;;;;;;1.38;74.39;101275.38;1789607;80;20971;-67
2022/02/10 01:42:17;;;;;;;31.07;15.98;;;;;;;1.35;74.50;101277.57;1788653;80;21034;-66
2022/02/10 02:03:51;;;;;;;27.95;15.45;;;;;;;1.52;75.72;101263.17;1789757;80;21132;-66
2022/02/10 02:06:39;;;;;;;39.83;17.77;;;;;;;1.53;75.54;101262.28;1789544;80;21461;-66
2022/02/10 02:08:59;;;;;;;40.55;18.73;;;;;;;1.52;75.44;101258.00;1787323;80;21008;-65
2022/02/10 02:11:27;;;;;;;42.53;19.73;;;;;;;1.48;75.47;101255.03;1789710;80;20860;-67
2022/02/10 02:13:57;;;;;;;43.38;23.42;;;;;;;1.44;75.53;101264.54;1789683;79;20868;-67
2022/02/10 02:16:26;;;;;;;38.28;21.65;;;;;;;1.41;75.66;101265.88;1789405;79;21101;-67
2022/02/10 02:18:53;;;;;;;41.25;22.90;;;;;;;1.40;75.77;101261.59;1789833;80;20857;-66
2022/02/10 02:21:20;;;;;;;47.40;23.25;;;;;;;1.40;75.89;101264.59;1789491;80;20952;-67
2022/02/10 02:23:47;;;;;;;58.40;25.97;;;;;;;1.38;75.91;101264.64;1789323;80;21006;-67
2022/02/10 02:26:18;;;;;;;49.93;24.32;;;;;;;1.37;75.88;101265.94;1789707;80;21353;-67
2022/02/10 02:28:46;;;;;;;44.98;22.20;;;;;;;1.33;75.79;101266.39;1789032;80;21761;-67
2022/02/10 02:31:17;;;;;;;41.20;21.37;;;;;;;1.31;75.79;101267.30;1785801;80;20975;-67
2022/02/10 03:06:31;;;;;;;27.58;13.65;;;;;;;0.92;76.58;101283.64;1783939;80;20921;-67
2022/02/10 03:08:57;;;;;;;28.30;13.65;;;;;;;0.90;76.61;101298.28;1782332;80;21504;-67
2022/02/10 03:11:21;;;;;;;29.23;13.28;;;;;;;0.88;76.60;101291.84;1783147;80;20888;-67
2022/02/10 03:13:55;;;;;;;31.05;15.08;;;;;;;0.88;76.48;101284.53;1783589;80;21358;-67
2022/02/10 03:21:56;;;;;;;25.23;12.07;;;;;;;0.82;76.54;101281.55;1783662;80;21086;-68
2022/02/10 04:05:32;;;;;;;17.85;8.73;;;;;;;0.82;76.78;101306.08;1775256;80;21382;-66
2022/02/10 04:07:55;;;;;;;21.02;10.03;;;;;;;0.84;76.71;101308.22;1772061;80;20960;-67
2022/02/10 04:15:36;;;;;;;18.82;10.15;;;;;;;0.87;76.46;101297.00;1775416;80;21769;-68
2022/02/10 04:28:24;;;;;;;24.07;11.00;;;;;;;0.93;76.17;101290.50;1746827;80;21190;-67
2022/02/10 04:57:47;;;;;;;31.17;12.50;;;;;;;0.89;76.16;101260.41;1775169;80;20920;-65
2022/02/10 05:08:32;;;;;;;28.02;11.68;;;;;;;0.94;76.69;101262.53;1748611;80;22083;-68
2022/02/10 05:23:57;;;;;;;16.90;8.68;;;;;;;1.27;76.64;101260.03;1775051;80;20972;-69
2022/02/10 05:34:33;;;;;;;12.35;6.12;;;;;;;1.52;75.96;101261.88;1783808;80;21576;-69
2022/02/10 05:36:57;;;;;;;15.03;6.33;;;;;;;1.56;75.81;101254.95;1782737;80;21389;-66
2022/02/10 05:39:26;;;;;;;15.13;7.10;;;;;;;1.59;75.71;101254.46;1783693;80;20892;-69
2022/02/10 07:07:05;;;;;;;14.30;5.97;;;;;;;3.18;68.93;101229.91;1783897;80;21689;-75
2022/02/10 07:48:25;;;;;;;19.92;12.35;;;;;;;3.16;69.67;101207.94;1783555;80;21151;-79
2022/02/10 07:59:12;;;;;;;18.12;9.45;;;;;;;3.19;69.33;101200.09;1785664;80;20983;-76
2022/02/10 08:51:12;;;;;;;20.82;11.45;;;;;;;3.31;71.50;101180.84;1775373;80;20940;-70
2022/02/10 09:06:39;;;;;;;17.37;10.40;;;;;;;3.38;72.63;101189.33;1775325;80;20931;-71
2022/02/10 09:19:44;;;;;;;20.92;12.45;;;;;;;3.45;74.46;101168.91;1775186;80;20853;-68
2022/02/10 09:47:31;;;;;;;22.25;13.22;;;;;;;3.45;75.46;101162.42;1775649;80;20857;-69
2022/02/10 09:56:55;;;;;;;18.82;11.75;;;;;;;3.81;77.31;101140.42;1783483;80;20936;-69
2022/02/10 09:59:52;;;;;;;23.18;13.18;;;;;;;3.80;77.70;101143.47;1781613;80;20927;-69
2022/02/10 10:01:47;;;;;;;25.00;14.23;;;;;;;3.81;77.95;101145.16;1774911;80;21881;-69
2022/02/10 10:04:20;;;;;;;18.82;11.43;;;;;;;3.83;78.24;101147.28;1728823;80;20971;-70
2022/02/10 10:06:52;;;;;;;17.52;11.53;;;;;;;3.87;78.53;101144.18;1781616;80;21453;-70
2022/02/10 10:14:27;;;;;;;14.28;11.10;;;;;;;3.98;79.29;101139.58;1733861;80;21707;-71
2022/02/10 10:17:33;;;;;;;15.45;9.95;;;;;;;4.02;79.56;101136.00;1774961;80;20904;-69
2022/02/10 10:23:42;;;;;;;17.10;10.93;;;;;;;4.13;79.77;101143.06;1776011;80;21367;-70
2022/02/10 10:25:25;;;;;;;19.67;12.82;;;;;;;4.18;79.86;101139.09;1748500;80;20927;-71
2022/02/10 10:50:37;;;;;;;16.05;13.43;;;;;;;4.39;80.37;101148.52;1776164;80;20897;-70
2022/02/10 10:53:15;;;;;;;;;;;;;;;4.39;80.48;101147.22;1776617;80;20908;-70
2022/02/10 10:55:46;;;;;;;16.02;13.05;;;;;;;4.37;80.64;101147.25;1734773;82;21167;-70
2022/02/10 10:58:12;;;;;;;18.55;14.25;;;;;;;4.36;80.90;101147.70;1773772;80;20920;-71
2022/02/10 11:03:48;;;;;;;21.90;16.25;;;;;;;4.43;81.31;101144.50;1775706;80;21470;-70
2022/02/10 12:37:00;;;;;;;35.50;23.45;;;;;;;5.91;80.74;101181.39;1770399;81;21400;-71
2022/02/10 13:23:40;;;;;;;23.10;18.50;;;;;;;6.44;79.18;101232.69;1770285;81;20960;-70
2022/02/10 14:11:04;;;;;;;27.35;20.88;;;;;;;6.39;77.79;101273.67;1821959;78;20919;-69
2022/02/10 14:13:24;;;;;;;32.48;22.90;;;;;;;6.36;78.00;101268.58;1817347;78;20856;-72
2022/02/10 14:18:24;;;;;;;35.17;23.70;;;;;;;6.39;77.81;101274.98;1822536;78;20966;-72
2022/02/10 14:21:00;;;;;;;34.48;22.13;;;;;;;6.38;77.87;101268.92;1819544;78;21143;-71
2022/02/10 14:26:05;;;;;;;36.70;25.10;;;;;;;6.43;78.00;101266.17;1822118;78;20935;-69
2022/02/10 14:28:26;;;;;;;37.05;27.50;;;;;;;6.47;77.90;101266.47;1821186;78;20939;-72
2022/02/10 14:30:54;;;;;;;38.23;27.73;;;;;;;6.48;77.63;101265.56;1822055;78;21451;-70
2022/02/10 14:33:29;;;;;;;40.25;29.45;;;;;;;6.46;77.46;101276.48;1822308;78;21109;-71
2022/02/10 14:36:05;;;;;;;38.08;27.73;;;;;;;6.42;77.41;101273.14;1821839;78;20903;-73
2022/02/10 14:38:46;;;;;;;;;;;;;;;6.42;77.47;101269.66;1824045;78;20978;-67
2022/02/10 14:41:30;;;;;;;41.10;27.95;;;;;;;6.39;77.36;101269.31;1819281;78;20390;-68
2022/02/10 15:33:30;;;;;;;38.75;27.60;;;;;;;5.87;77.26;101298.66;1821464;78;20930;-68
2022/02/10 15:46:20;;;;;;;40.67;27.30;;;;;;;5.70;77.96;101313.48;1821478;78;21341;-68
2022/02/10 16:18:19;;;;;;;34.35;26.10;;;;;;;4.91;78.93;101331.61;1825192;77;20958;-66
2022/02/10 16:20:51;;;;;;;36.08;25.30;;;;;;;4.87;79.15;101336.47;1824877;78;21158;-66
2022/02/10 16:23:17;;;;;;;40.25;25.50;;;;;;;4.84;79.38;101337.86;1824360;78;21009;-67
2022/02/10 16:26:07;;;;;;;41.60;28.10;;;;;;;4.83;79.48;101337.47;1825192;77;20844;-67
2022/02/10 16:28:25;;;;;;;45.48;28.75;;;;;;;4.84;79.64;101343.06;1821352;78;21587;-67
2022/02/10 16:30:47;;;;;;;45.00;27.73;;;;;;;4.85;79.72;101341.73;1824420;77;21371;-69
2022/02/10 16:33:14;;;;;;;41.13;27.10;;;;;;;4.87;79.71;101341.67;1824621;78;21007;-70
2022/02/10 16:35:42;;;;;;;40.10;29.35;;;;;;;4.84;79.66;101336.11;1824209;78;21457;-71
2022/02/10 16:38:09;;;;;;;36.23;25.08;;;;;;;4.85;79.71;101342.19;1825026;78;20871;-69
2022/02/10 16:40:39;;;;;;;34.53;24.45;;;;;;;4.87;79.67;101342.97;1824445;78;21408;-70
2022/02/10 16:43:06;;;;;;;38.05;24.55;;;;;;;4.87;79.60;101343.85;1824088;78;21025;-70
2022/02/10 16:45:33;;;;;;;35.88;23.87;;;;;;;4.86;79.60;101340.83;1824994;78;21107;-70
2022/02/10 16:48:00;;;;;;;32.63;23.15;;;;;;;4.86;79.70;101345.17;1822601;77;21492;-70
2022/02/10 16:50:27;;;;;;;41.58;27.93;;;;;;;4.88;79.72;101336.45;1821408;78;20840;-70
2022/02/10 16:53:03;;;;;;;34.58;24.67;;;;;;;4.90;79.77;101345.06;1821450;78;20856;-71
2022/02/10 17:01:03;;;;;;;53.63;40.08;;;;;;;5.03;79.72;101341.72;1820719;78;21024;-69
2022/02/10 17:19:26;;;;;;;38.58;24.92;;;;;;;5.17;79.04;101337.45;1821049;78;20884;-70
2022/02/10 17:45:38;;;;;;;47.23;29.23;;;;;;;5.32;78.65;101344.02;1820546;78;21433;-71
2022/02/10 17:53:26;;;;;;;46.10;28.10;;;;;;;5.31;78.79;101349.64;1824651;78;20895;-70
2022/02/10 17:55:52;;;;;;;44.63;27.62;;;;;;;5.33;78.88;101350.45;1824761;78;20962;-69
2022/02/10 17:58:23;;;;;;;46.15;30.43;;;;;;;5.36;78.85;101352.14;1824642;78;21496;-70
2022/02/10 18:01:00;;;;;;;42.80;29.23;;;;;;;5.38;78.91;101343.41;1824529;78;21041;-70
2022/02/10 18:03:27;;;;;;;45.83;29.85;;;;;;;5.41;78.83;101345.06;1821530;78;21155;-71
2022/02/10 18:08:26;;;;;;;43.63;28.15;;;;;;;5.36;78.48;101339.98;1824148;78;20907;-71
2022/02/10 18:11:34;;;;;;;44.33;26.77;;;;;;;5.33;78.37;101343.11;1823888;78;21404;-69
2022/02/10 18:13:46;;;;;;;42.10;27.87;;;;;;;5.28;78.40;101345.83;1824147;78;20939;-69
2022/02/10 18:16:13;;;;;;;41.33;28.32;;;;;;;5.24;78.46;101340.75;1823013;78;21163;-70
2022/02/10 18:18:43;;;;;;;43.55;26.52;;;;;;;5.22;78.60;101345.13;1823721;78;20891;-71
2022/02/10 18:21:28;;;;;;;44.27;27.02;;;;;;;5.21;78.68;101344.74;1824133;78;20860;-71
2022/02/10 18:29:19;;;;;;;49.15;28.98;;;;;;;5.19;78.87;101335.67;1823901;78;21142;-69
2022/02/10 19:09:07;;;;;;;41.58;26.87;;;;;;;5.00;78.98;101357.37;1825111;78;21790;-70
2022/02/10 19:11:28;;;;;;;38.28;25.10;;;;;;;4.99;78.95;101364.32;1823606;77;20879;-69
2022/02/10 19:13:57;;;;;;;38.92;25.32;;;;;;;4.98;79.01;101361.33;1825047;78;20967;-72
2022/02/10 19:16:25;;;;;;;35.52;22.65;;;;;;;4.98;79.05;101353.53;1824755;78;20923;-70
2022/02/10 19:18:53;;;;;;;36.80;25.50;;;;;;;4.96;79.05;101357.91;1825173;78;20994;-70
2022/02/10 19:21:20;;;;;;;35.65;23.57;;;;;;;4.97;79.15;101357.00;1824883;77;21875;-70
2022/02/10 19:23:47;;;;;;;33.48;23.42;;;;;;;5.01;79.16;101360.39;1824670;77;20907;-69
2022/02/10 19:26:14;;;;;;;33.28;22.58;;;;;;;5.03;79.09;101362.52;1824794;78;20915;-70
2022/02/10 19:28:43;;;;;;;33.88;23.22;;;;;;;5.07;79.06;101355.47;1825008;77;20892;-72
2022/02/10 19:31:12;;;;;;;32.20;22.73;;;;;;;5.08;78.98;101355.89;1824923;77;21033;-70
2022/02/10 19:33:39;;;;;;;34.45;23.65;;;;;;;5.08;78.89;101355.44;1791659;79;21225;-68
2022/02/10 19:36:06;;;;;;;36.10;23.87;;;;;;;5.08;78.79;101357.20;1819375;77;20937;-73
2022/02/10 19:38:35;;;;;;;31.35;22.25;;;;;;;5.07;78.70;101351.57;1825153;77;20970;-71
2022/02/10 19:41:01;;;;;;;36.25;22.62;;;;;;;5.06;78.63;101347.28;1824866;77;20868;-73
2022/02/10 19:43:30;;;;;;;30.20;19.52;;;;;;;5.04;78.58;101346.46;1824433;78;21037;-74
2022/02/10 19:45:58;;;;;;;29.55;20.48;;;;;;;5.03;78.63;101347.38;1824625;77;21084;-77
2022/02/10 19:48:26;;;;;;;36.60;22.27;;;;;;;5.03;78.70;101346.91;1824107;77;21572;-76
2022/02/10 19:50:54;;;;;;;35.23;22.75;;;;;;;5.05;78.75;101345.13;1821802;78;20935;-76
2022/02/10 19:53:22;;;;;;;42.00;25.80;;;;;;;5.08;78.79;101342.90;1820799;78;21477;-77
2022/02/10 19:55:52;;;;;;;37.75;23.18;;;;;;;5.12;78.80;101340.63;1821338;78;21520;-77
2022/02/10 19:58:23;;;;;;;44.27;28.10;;;;;;;5.18;78.83;101343.08;1820380;78;20995;-77
2022/02/10 20:00:52;;;;;;;43.83;26.50;;;;;;;5.22;78.77;101339.48;1821264;78;20966;-77
2022/02/10 20:03:21;;;;;;;42.33;28.77;;;;;;;5.27;78.71;101336.75;1821764;78;20900;-76
2022/02/10 20:05:50;;;;;;;46.00;29.90;;;;;;;5.29;78.54;101335.84;1819608;78;20926;-78
2022/02/10 20:08:25;;;;;;;46.88;28.23;;;;;;;5.31;78.39;101338.39;1821703;78;20876;-79
2022/02/10 20:10:54;;;;;;;36.03;23.57;;;;;;;5.33;78.28;101336.60;1821366;78;21152;-78
2022/02/10 20:13:26;;;;;;;40.38;23.27;;;;;;;5.34;78.17;101334.42;1821105;78;21483;-76
2022/02/10 20:15:54;;;;;;;30.08;19.55;;;;;;;5.32;78.10;101337.51;1821090;78;20970;-77
2022/02/10 20:18:22;;;;;;;30.37;19.50;;;;;;;5.31;78.14;101329.28;1820808;78;20966;-75
2022/02/10 20:20:53;;;;;;;26.57;18.55;;;;;;;5.30;78.19;101335.39;1821203;78;21433;-74
2022/02/10 20:23:22;;;;;;;25.70;18.65;;;;;;;5.30;78.23;101338.00;1820831;78;21030;-76
2022/02/10 20:25:48;;;;;;;27.52;17.95;;;;;;;5.33;78.21;101332.25;1821386;78;20848;-77
2022/02/10 20:28:22;;;;;;;26.40;19.27;;;;;;;5.34;78.11;101329.22;1821590;78;20845;-76
2022/02/10 20:30:47;;;;;;;26.02;17.73;;;;;;;5.34;78.04;101329.22;1820607;78;20970;-75
2022/02/10 20:33:15;;;;;;;26.65;18.62;;;;;;;5.33;77.96;101330.95;1821842;78;20924;-70
2022/02/10 20:35:45;;;;;;;26.65;19.25;;;;;;;5.32;77.90;101330.55;1821416;78;22149;-75
2022/02/10 20:38:12;;;;;;;23.35;17.27;;;;;;;5.31;77.80;101334.03;1821583;78;20970;-75
2022/02/10 20:40:43;;;;;;;20.32;16.42;;;;;;;5.32;77.79;101340.11;1821603;78;21009;-75
2022/02/10 20:43:11;;;;;;;22.73;16.77;;;;;;;5.29;77.81;101338.45;1821823;78;20911;-75
2022/02/10 20:45:39;;;;;;;24.92;18.15;;;;;;;5.27;77.87;101338.94;1820580;78;20876;-76
2022/02/10 20:48:07;;;;;;;24.23;17.17;;;;;;;5.26;77.92;101348.91;1820957;78;21924;-76
2022/02/10 20:50:36;;;;;;;19.95;15.70;;;;;;;5.29;78.03;101344.07;1824074;77;20868;-75
2022/02/10 20:53:03;;;;;;;22.22;16.23;;;;;;;5.30;78.00;101343.20;1824969;77;21460;-74
2022/02/10 20:55:33;;;;;;;25.02;16.73;;;;;;;5.30;77.94;101337.54;1825091;77;20947;-76
2022/02/10 20:57:59;;;;;;;25.72;18.23;;;;;;;5.29;77.92;101341.05;1824724;77;20982;-77
2022/02/10 21:00:30;;;;;;;26.50;18.10;;;;;;;5.29;77.82;101334.97;1824716;77;21968;-77
2022/02/10 21:02:57;;;;;;;21.52;16.12;;;;;;;5.24;77.66;101339.00;1823258;77;21001;-78
2022/02/10 21:05:36;;;;;;;24.18;18.07;;;;;;;5.21;77.65;101335.64;1824656;78;21422;-76
2022/02/10 21:10:31;;;;;;;24.00;17.70;;;;;;;5.12;77.68;101340.17;1824511;77;21057;-75
2022/02/10 21:12:57;;;;;;;22.10;15.05;;;;;;;5.07;77.80;101339.45;1824752;77;21759;-74
2022/02/10 21:15:30;;;;;;;29.37;18.87;;;;;;;5.06;77.96;101349.42;1824732;78;20880;-75
2022/02/10 21:18:02;;;;;;;26.62;19.05;;;;;;;5.06;78.10;101348.13;1825013;78;20899;-74
2022/02/10 21:20:29;;;;;;;23.60;17.57;;;;;;;5.07;78.17;101345.07;1824089;78;21402;-75
2022/02/10 21:23:06;;;;;;;23.02;15.83;;;;;;;5.09;78.21;101349.79;1824726;78;20970;-74
2022/02/10 21:25:32;;;;;;;20.35;15.70;;;;;;;5.09;78.24;101347.19;1823516;78;21308;-76
2022/02/10 21:27:55;;;;;;;19.45;14.98;;;;;;;5.11;78.29;101344.98;1824204;78;20852;-76
2022/02/10 21:30:23;;;;;;;20.08;16.62;;;;;;;5.12;78.23;101350.58;1824873;78;20939;-75
2022/02/10 21:32:56;;;;;;;22.87;17.07;;;;;;;5.12;78.21;101342.78;1825051;77;20919;-73
2022/02/10 21:48:24;;;;;;;22.00;15.63;;;;;;;5.08;78.20;101332.50;1797280;78;20951;-75
2022/02/10 22:02:30;;;;;;;24.43;17.05;;;;;;;5.07;77.93;101332.08;1824939;78;20911;-74
2022/02/10 22:07:20;;;;;;;26.87;16.67;;;;;;;5.01;77.84;101331.80;1824663;78;20880;-73
2022/02/10 22:12:00;;;;;;;20.80;16.93;;;;;;;4.91;77.96;101320.80;1824845;78;20923;-72
2022/02/10 22:17:41;;;;;;;22.52;16.10;;;;;;;4.88;78.30;101332.55;1824995;78;21140;-71
2022/02/10 22:19:46;;;;;;;17.62;15.13;;;;;;;4.89;78.38;101322.58;1821107;78;20935;-71
2022/02/10 22:22:22;;;;;;;19.55;15.40;;;;;;;4.90;78.48;101323.42;1825016;78;20958;-74
2022/02/10 22:24:42;;;;;;;19.23;14.75;;;;;;;4.91;78.54;101318.20;1823767;78;20871;-72
2022/02/10 22:27:09;;;;;;;20.35;16.05;;;;;;;4.93;78.57;101324.64;1825110;78;20860;-71
2022/02/10 22:29:43;;;;;;;23.90;17.40;;;;;;;4.94;78.64;101323.77;1825341;78;21044;-70
2022/02/10 22:34:39;;;;;;;23.73;18.50;;;;;;;4.95;78.51;101318.95;1824960;78;20899;-67
2022/02/10 22:37:08;;;;;;;23.42;16.82;;;;;;;4.94;78.46;101313.36;1824996;78;20856;-68
2022/02/10 22:39:41;;;;;;;21.45;15.72;;;;;;;4.92;78.37;101307.34;1825326;78;21342;-68
2022/02/10 22:42:06;;;;;;;22.27;15.58;;;;;;;4.90;78.36;101307.38;1825018;78;21341;-68
2022/02/10 22:44:35;;;;;;;23.55;16.45;;;;;;;4.88;78.43;101307.86;1825078;78;20899;-67
2022/02/10 22:47:02;;;;;;;20.75;16.07;;;;;;;4.87;78.52;101314.38;1797191;78;20966;-68
2022/02/10 22:49:29;;;;;;;19.92;15.00;;;;;;;4.86;78.53;101317.44;1791086;79;21370;-68
2022/02/10 22:51:56;;;;;;;24.45;16.55;;;;;;;4.84;78.62;101320.52;1797445;77;21322;-68
2022/02/10 22:54:23;;;;;;;20.27;16.40;;;;;;;4.83;78.69;101314.08;1797513;77;21114;-72
2022/02/10 22:56:52;;;;;;;21.60;15.98;;;;;;;4.88;78.71;101327.34;1797131;78;20962;-68
2022/02/10 22:59:19;;;;;;;19.30;15.32;;;;;;;4.90;78.71;101332.52;1797323;79;20861;-68
2022/02/10 23:01:46;;;;;;;21.02;16.48;;;;;;;4.89;78.76;101330.80;1797178;79;20875;-68
2022/02/10 23:04:13;;;;;;;23.87;17.70;;;;;;;4.89;78.81;101334.27;1797195;77;20934;-68
2022/02/10 23:06:40;;;;;;;21.70;16.37;;;;;;;4.91;78.77;101331.19;1797193;79;21125;-69
2022/02/10 23:11:56;;;;;;;26.40;19.32;;;;;;;4.93;78.62;101334.58;1797299;79;20895;-67
2022/02/10 23:14:23;;;;;;;25.08;18.90;;;;;;;4.93;78.57;101333.73;1797277;79;21432;-66
2022/02/10 23:16:50;;;;;;;26.30;18.87;;;;;;;4.90;78.55;101334.66;1797249;78;20958;-67
2022/02/10 23:19:20;;;;;;;27.32;19.75;;;;;;;4.90;78.67;101340.31;1797252;78;22345;-65
2022/02/10 23:21:47;;;;;;;26.57;19.15;;;;;;;4.89;78.75;101339.47;1797243;79;21346;-68
2022/02/10 23:24:14;;;;;;;29.70;19.70;;;;;;;4.90;78.82;101341.62;1797291;78;21452;-67
2022/02/10 23:26:41;;;;;;;28.62;20.92;;;;;;;4.92;78.83;101343.28;1797212;77;20911;-67
2022/02/10 23:29:08;;;;;;;27.05;20.70;;;;;;;4.93;78.82;101338.48;1797521;77;20832;-67
2022/02/10 23:31:36;;;;;;;26.07;18.50;;;;;;;4.96;78.80;101334.97;1797254;77;21516;-66
2022/02/10 23:34:04;;;;;;;24.95;18.45;;;;;;;4.96;78.81;101338.42;1797481;77;20931;-67
2022/02/10 23:39:27;;;;;;;28.77;19.50;;;;;;;4.96;78.72;101343.62;1797131;77;20879;-67
2022/02/10 23:42:00;;;;;;;27.13;18.60;;;;;;;4.95;78.67;101342.34;1796465;78;21341;-68
2022/02/10 23:44:26;;;;;;;26.82;18.37;;;;;;;4.91;78.66;101341.59;1795714;77;21156;-67
2022/02/10 23:46:49;;;;;;;23.92;17.92;;;;;;;4.89;78.67;101345.97;1796417;79;20828;-68
2022/02/10 23:49:20;;;;;;;29.07;17.98;;;;;;;4.88;78.73;101349.44;1798008;77;20879;-68
2022/02/10 23:51:56;;;;;;;23.95;18.62;;;;;;;4.86;78.81;101346.02;1821485;78;20922;-69
2022/02/10 23:54:18;;;;;;;24.10;17.85;;;;;;;4.86;78.89;101349.08;1820014;78;21333;-68
2022/02/10 23:56:52;;;;;;;24.90;18.87;;;;;;;4.86;79.01;101349.08;1821326;78;21548;-67
2022/02/10 23:59:32;;;;;;;27.82;19.70;;;;;;;4.88;79.04;101344.24;1820184;78;21369;-67
